createdAt,value
2017-09-01T00:00:16.460Z,0
2017-09-01T00:00:57.036Z,0
2017-09-01T00:01:37.638Z,0
2017-09-01T00:02:18.198Z,0
2017-09-01T00:02:58.780Z,0
2017-09-01T00:03:39.364Z,0
2017-09-01T00:04:19.938Z,0
2017-09-01T00:05:00.524Z,0
2017-09-01T00:05:41.109Z,0
2017-09-01T00:06:21.694Z,0
2017-09-01T00:07:02.272Z,0
2017-09-01T00:07:42.852Z,0
2017-09-01T00:08:23.435Z,0
2017-09-01T00:09:04.019Z,0
2017-09-01T00:09:44.607Z,0
2017-09-01T00:10:25.178Z,0
2017-09-01T00:11:05.759Z,0
2017-09-01T00:11:46.340Z,0
2017-09-01T00:12:26.921Z,0
2017-09-01T00:13:07.501Z,0
2017-09-01T00:13:48.100Z,0
2017-09-01T00:14:28.684Z,0
2017-09-01T00:15:09.268Z,0
2017-09-01T00:15:49.855Z,0
2017-09-01T00:16:30.434Z,0
2017-09-01T00:17:11.024Z,0
2017-09-01T00:17:51.599Z,0
2017-09-01T00:18:32.184Z,0
2017-09-01T00:19:12.755Z,0
2017-09-01T00:19:53.336Z,0
2017-09-01T00:20:33.928Z,0
2017-09-01T00:21:14.502Z,0
2017-09-01T00:21:55.081Z,0
2017-09-01T00:22:35.667Z,0
2017-09-01T00:23:16.247Z,0
2017-09-01T00:23:56.827Z,0
2017-09-01T00:24:37.413Z,0
2017-09-01T00:25:17.981Z,0
2017-09-01T00:25:58.554Z,0
2017-09-01T00:26:39.136Z,0
2017-09-01T00:27:19.721Z,0
2017-09-01T00:28:00.307Z,0
2017-09-01T00:28:40.891Z,0
2017-09-01T00:29:21.464Z,0
2017-09-01T00:30:02.050Z,0
2017-09-01T00:30:42.630Z,0
2017-09-01T00:31:23.195Z,0
2017-09-01T00:32:03.779Z,0
2017-09-01T00:32:44.355Z,0
2017-09-01T00:33:24.934Z,0
2017-09-01T00:34:05.522Z,0
2017-09-01T00:34:46.101Z,0
2017-09-01T00:35:26.682Z,0
2017-09-01T00:36:07.284Z,0
2017-09-01T00:36:47.843Z,0
2017-09-01T00:37:28.425Z,0
2017-09-01T00:38:09.053Z,0
2017-09-01T00:38:49.598Z,0
2017-09-01T00:39:30.174Z,0
2017-09-01T00:40:10.754Z,0
2017-09-01T00:40:51.332Z,0
2017-09-01T00:41:31.907Z,0
2017-09-01T00:42:12.479Z,0
2017-09-01T00:42:53.065Z,0
2017-09-01T00:43:33.653Z,0
2017-09-01T00:44:14.231Z,0
2017-09-01T00:44:54.809Z,0
2017-09-01T00:45:35.383Z,0
2017-09-01T00:46:26.936Z,0
2017-09-01T00:47:07.520Z,0
2017-09-01T00:47:48.114Z,0
2017-09-01T00:48:28.693Z,0
2017-09-01T00:49:09.267Z,0
2017-09-01T00:49:49.840Z,0
2017-09-01T00:50:30.427Z,0
2017-09-01T00:51:10.997Z,0
2017-09-01T00:51:51.587Z,0
2017-09-01T00:52:32.167Z,0
2017-09-01T00:53:12.752Z,0
2017-09-01T00:53:53.333Z,0
2017-09-01T00:54:33.913Z,0
2017-09-01T00:55:14.503Z,0
2017-09-01T00:55:55.079Z,0
2017-09-01T00:56:35.657Z,0
2017-09-01T00:57:16.240Z,0
2017-09-01T00:57:56.819Z,0
2017-09-01T00:58:37.397Z,0
2017-09-01T00:59:17.980Z,0
2017-09-01T00:59:58.558Z,0
2017-09-01T01:00:39.145Z,0
2017-09-01T01:01:19.719Z,0
2017-09-01T01:02:01.235Z,0
2017-09-01T01:02:41.812Z,0
2017-09-01T01:03:22.391Z,0
2017-09-01T01:04:02.962Z,0
2017-09-01T01:04:43.550Z,0
2017-09-01T01:05:24.127Z,0
2017-09-01T01:06:04.706Z,0
2017-09-01T01:06:45.292Z,0
2017-09-01T01:07:25.865Z,0
2017-09-01T01:08:06.434Z,0
2017-09-01T01:08:47.034Z,0
2017-09-01T01:09:27.618Z,0
2017-09-01T01:10:08.190Z,0
2017-09-01T01:10:48.771Z,0
2017-09-01T01:11:29.338Z,0
2017-09-01T01:12:09.929Z,0
2017-09-01T01:12:50.503Z,0
2017-09-01T01:13:31.084Z,0
2017-09-01T01:14:11.661Z,0
2017-09-01T01:14:52.242Z,0
2017-09-01T01:15:32.821Z,0
2017-09-01T01:16:13.401Z,0
2017-09-01T01:16:53.983Z,0
2017-09-01T01:17:34.566Z,0
2017-09-01T01:18:15.147Z,0
2017-09-01T01:18:55.738Z,0
2017-09-01T01:19:36.316Z,0
2017-09-01T01:20:16.901Z,0
2017-09-01T01:20:57.477Z,0
2017-09-01T01:21:38.066Z,0
2017-09-01T01:22:18.642Z,0
2017-09-01T01:22:59.228Z,0
2017-09-01T01:23:39.829Z,0
2017-09-01T01:24:20.427Z,0
2017-09-01T01:25:16.028Z,0
2017-09-01T01:25:56.608Z,0
2017-09-01T01:26:37.191Z,0
2017-09-01T01:27:17.797Z,0
2017-09-01T01:27:58.385Z,0
2017-09-01T01:28:38.961Z,0
2017-09-01T01:29:19.544Z,0
2017-09-01T01:30:00.126Z,0
2017-09-01T01:30:40.708Z,0
2017-09-01T01:31:21.284Z,0
2017-09-01T01:32:01.868Z,0
2017-09-01T01:32:42.453Z,0
2017-09-01T01:33:23.034Z,0
2017-09-01T01:34:03.621Z,0
2017-09-01T01:34:44.210Z,0
2017-09-01T01:35:24.793Z,0
2017-09-01T01:36:05.380Z,0
2017-09-01T01:36:45.964Z,0
2017-09-01T01:37:26.553Z,0
2017-09-01T01:38:07.146Z,0
2017-09-01T01:38:47.722Z,0
2017-09-01T01:39:28.303Z,0
2017-09-01T01:40:08.884Z,0
2017-09-01T01:40:49.469Z,0
2017-09-01T01:41:30.054Z,0
2017-09-01T01:42:10.642Z,0
2017-09-01T01:42:51.225Z,0
2017-09-01T01:43:31.808Z,0
2017-09-01T01:44:12.396Z,0
2017-09-01T01:44:52.973Z,0
2017-09-01T01:45:33.552Z,0
2017-09-01T01:46:14.131Z,0
2017-09-01T01:46:54.724Z,0
2017-09-01T01:47:35.299Z,0
2017-09-01T01:48:15.886Z,0
2017-09-01T01:48:56.459Z,0
2017-09-01T01:49:37.041Z,0
2017-09-01T01:50:17.618Z,0
2017-09-01T01:50:58.209Z,0
2017-09-01T01:51:38.770Z,0
2017-09-01T01:52:19.350Z,0
2017-09-01T01:52:59.936Z,0
2017-09-01T01:53:40.507Z,0
2017-09-01T01:54:21.086Z,0
2017-09-01T01:55:01.670Z,0
2017-09-01T01:55:42.253Z,0
2017-09-01T01:56:22.840Z,0
2017-09-01T01:57:03.428Z,0
2017-09-01T01:57:43.992Z,0
2017-09-01T01:58:24.579Z,0
2017-09-01T01:59:05.157Z,0
2017-09-01T01:59:45.739Z,0
2017-09-01T02:00:26.318Z,0
2017-09-01T02:01:06.895Z,0
2017-09-01T02:01:47.470Z,0
2017-09-01T02:02:28.048Z,0
2017-09-01T02:03:08.625Z,0
2017-09-01T02:03:49.209Z,0
2017-09-01T02:04:29.798Z,0
2017-09-01T02:05:10.385Z,0
2017-09-01T02:05:50.961Z,0
2017-09-01T02:06:31.536Z,0
2017-09-01T02:07:25.030Z,0
2017-09-01T02:08:05.596Z,0
2017-09-01T02:08:46.198Z,0
2017-09-01T02:09:26.763Z,0
2017-09-01T02:10:07.341Z,0
2017-09-01T02:10:47.928Z,0
2017-09-01T02:11:28.512Z,0
2017-09-01T02:12:09.101Z,0
2017-09-01T02:12:49.680Z,0
2017-09-01T02:13:30.256Z,0
2017-09-01T02:14:10.848Z,0
2017-09-01T02:14:51.426Z,0
2017-09-01T02:15:31.996Z,0
2017-09-01T02:16:12.582Z,0
2017-09-01T02:16:53.191Z,0
2017-09-01T02:17:33.730Z,0
2017-09-01T02:18:14.328Z,0
2017-09-01T02:18:54.909Z,0
2017-09-01T02:19:35.499Z,0
2017-09-01T02:20:16.080Z,0
2017-09-01T02:20:56.671Z,0
2017-09-01T02:21:37.249Z,0
2017-09-01T02:22:17.833Z,0
2017-09-01T02:22:58.414Z,0
2017-09-01T02:23:38.992Z,0
2017-09-01T02:24:19.561Z,0
2017-09-01T02:25:00.147Z,0
2017-09-01T02:25:40.723Z,0
2017-09-01T02:26:21.309Z,0
2017-09-01T02:27:01.883Z,0
2017-09-01T02:27:42.451Z,0
2017-09-01T02:28:23.030Z,0
2017-09-01T02:29:03.609Z,0
2017-09-01T02:29:44.181Z,0
2017-09-01T02:30:24.748Z,0
2017-09-01T02:31:05.347Z,0
2017-09-01T02:31:45.917Z,0
2017-09-01T02:32:26.504Z,0
2017-09-01T02:33:07.075Z,0
2017-09-01T02:33:47.656Z,0
2017-09-01T02:34:28.243Z,0
2017-09-01T02:35:08.831Z,0
2017-09-01T02:35:49.404Z,0
2017-09-01T02:36:30.028Z,0
2017-09-01T02:37:10.610Z,0
2017-09-01T02:37:51.231Z,0
2017-09-01T02:38:31.810Z,0
2017-09-01T02:39:12.389Z,0
2017-09-01T02:39:52.969Z,0
2017-09-01T02:40:33.577Z,0
2017-09-01T02:41:14.149Z,0
2017-09-01T02:41:54.732Z,0
2017-09-01T02:42:35.320Z,0
2017-09-01T02:43:15.896Z,0
2017-09-01T02:43:56.471Z,0
2017-09-01T02:44:37.058Z,0
2017-09-01T02:45:17.631Z,0
2017-09-01T02:45:58.320Z,0
2017-09-01T02:46:39.041Z,0
2017-09-01T02:47:19.665Z,0
2017-09-01T02:48:00.239Z,0
2017-09-01T02:48:40.901Z,0
2017-09-01T02:49:21.561Z,0
2017-09-01T02:50:02.307Z,0
2017-09-01T02:50:42.915Z,0
2017-09-01T02:51:23.747Z,0
2017-09-01T02:52:04.392Z,0
2017-09-01T02:52:45.208Z,0
2017-09-01T02:53:25.781Z,0
2017-09-01T02:54:06.445Z,0
2017-09-01T02:54:47.169Z,0
2017-09-01T02:55:27.750Z,0
2017-09-01T02:56:08.332Z,0
2017-09-01T02:56:48.913Z,0
2017-09-01T02:57:29.496Z,0
2017-09-01T02:58:10.068Z,0
2017-09-01T02:58:50.785Z,0
2017-09-01T02:59:31.559Z,0
2017-09-01T03:00:12.364Z,0
2017-09-01T03:00:53.043Z,0
2017-09-01T03:01:33.871Z,0
2017-09-01T03:02:14.517Z,0
2017-09-01T03:02:55.298Z,0
2017-09-01T03:03:35.881Z,0
2017-09-01T03:04:16.467Z,0
2017-09-01T03:04:57.051Z,0
2017-09-01T03:05:37.637Z,0
2017-09-01T03:06:18.224Z,0
2017-09-01T03:06:58.802Z,0
2017-09-01T03:07:39.365Z,0
2017-09-01T03:08:19.950Z,0
2017-09-01T03:09:00.580Z,0
2017-09-01T03:09:41.164Z,0
2017-09-01T03:10:21.743Z,0
2017-09-01T03:11:02.332Z,0
2017-09-01T03:11:42.910Z,0
2017-09-01T03:12:24.382Z,0
2017-09-01T03:13:04.961Z,0
2017-09-01T03:13:45.542Z,0
2017-09-01T03:14:26.113Z,0
2017-09-01T03:15:07.271Z,0
2017-09-01T03:15:47.860Z,0
2017-09-01T03:16:28.561Z,0
2017-09-01T03:17:09.136Z,0
2017-09-01T03:17:49.769Z,0
2017-09-01T03:18:30.349Z,0
2017-09-01T03:19:10.936Z,0
2017-09-01T03:19:52.629Z,0
2017-09-01T03:20:33.281Z,0
2017-09-01T03:21:13.993Z,0
2017-09-01T03:21:54.577Z,0
2017-09-01T03:22:35.244Z,0
2017-09-01T03:23:15.879Z,0
2017-09-01T03:23:56.570Z,0
2017-09-01T03:24:37.306Z,0
2017-09-01T03:25:18.077Z,0
2017-09-01T03:25:58.726Z,0
2017-09-01T03:26:39.465Z,0
2017-09-01T03:27:20.086Z,0
2017-09-01T03:28:00.673Z,0
2017-09-01T03:28:41.341Z,0
2017-09-01T03:29:21.935Z,0
2017-09-01T03:30:02.787Z,0
2017-09-01T03:30:43.387Z,0
2017-09-01T03:31:23.975Z,0
2017-09-01T03:32:04.645Z,0
2017-09-01T03:32:45.308Z,0
2017-09-01T03:33:25.895Z,0
2017-09-01T03:34:06.542Z,0
2017-09-01T03:34:47.122Z,0
2017-09-01T03:35:27.695Z,0
2017-09-01T03:36:08.275Z,0
2017-09-01T03:36:48.864Z,0
2017-09-01T03:37:29.429Z,0
2017-09-01T03:38:10.124Z,0
2017-09-01T03:38:50.935Z,0
2017-09-01T03:39:31.897Z,0
2017-09-01T03:40:12.520Z,0
2017-09-01T03:40:53.108Z,0
2017-09-01T03:41:33.690Z,0
2017-09-01T03:42:14.273Z,0
2017-09-01T03:42:54.837Z,0
2017-09-01T03:43:35.414Z,0
2017-09-01T03:44:15.990Z,0
2017-09-01T03:44:56.564Z,0
2017-09-01T03:45:37.395Z,0
2017-09-01T03:46:18.057Z,0
2017-09-01T03:46:58.817Z,0
2017-09-01T03:47:39.513Z,0
2017-09-01T03:48:20.202Z,0
2017-09-01T03:49:00.912Z,0
2017-09-01T03:49:42.312Z,0
2017-09-01T03:50:22.904Z,0
2017-09-01T03:51:03.511Z,0
2017-09-01T03:51:44.149Z,0
2017-09-01T03:52:24.739Z,0
2017-09-01T03:53:05.307Z,0
2017-09-01T03:53:45.891Z,0
2017-09-01T03:54:26.475Z,0
2017-09-01T03:55:07.061Z,0
2017-09-01T03:55:47.667Z,0
2017-09-01T03:56:28.241Z,0
2017-09-01T03:58:41.089Z,0
2017-09-01T03:59:21.663Z,0
2017-09-01T04:00:02.238Z,0
2017-09-01T04:00:42.832Z,0
2017-09-01T04:01:23.393Z,0
2017-09-01T04:02:03.958Z,0
2017-09-01T04:02:44.533Z,0
2017-09-01T04:03:25.122Z,0
2017-09-01T04:04:05.698Z,0
2017-09-01T04:04:46.268Z,0
2017-09-01T04:05:26.856Z,0
2017-09-01T04:06:07.423Z,0
2017-09-01T04:06:47.996Z,0
2017-09-01T04:07:28.570Z,0
2017-09-01T04:08:09.158Z,0
2017-09-01T04:08:49.722Z,0
2017-09-01T04:09:30.309Z,0
2017-09-01T04:10:10.881Z,0
2017-09-01T04:10:51.472Z,0
2017-09-01T04:11:32.045Z,0
2017-09-01T04:12:12.618Z,0
2017-09-01T04:14:45.830Z,0
2017-09-01T04:15:26.403Z,0
2017-09-01T04:16:06.979Z,0
2017-09-01T04:16:47.562Z,0
2017-09-01T04:17:28.145Z,0
2017-09-01T04:18:08.727Z,0
2017-09-01T04:18:49.304Z,0
2017-09-01T04:19:29.883Z,0
2017-09-01T04:20:10.479Z,0
2017-09-01T04:20:51.060Z,0
2017-09-01T04:21:31.617Z,0
2017-09-01T04:22:12.195Z,0
2017-09-01T04:22:52.764Z,0
2017-09-01T04:23:33.352Z,0
2017-09-01T04:24:13.926Z,0
2017-09-01T04:24:54.520Z,0
2017-09-01T04:25:49.750Z,0
2017-09-01T04:26:30.337Z,0
2017-09-01T04:27:10.914Z,0
2017-09-01T04:27:51.500Z,0
2017-09-01T04:28:32.068Z,0
2017-09-01T04:29:12.650Z,0
2017-09-01T04:29:53.215Z,0
2017-09-01T04:30:33.790Z,0
2017-09-01T04:31:14.369Z,0
2017-09-01T04:31:54.945Z,0
2017-09-01T04:32:35.520Z,0
2017-09-01T04:33:16.102Z,0
2017-09-01T04:33:56.702Z,0
2017-09-01T04:34:37.280Z,0
2017-09-01T04:35:17.865Z,0
2017-09-01T04:35:58.461Z,0
2017-09-01T04:36:39.028Z,0
2017-09-01T04:37:19.602Z,0
2017-09-01T04:38:00.191Z,0
2017-09-01T04:38:40.776Z,0
2017-09-01T04:39:21.356Z,0
2017-09-01T04:40:01.938Z,0
2017-09-01T04:40:42.517Z,0
2017-09-01T04:41:23.094Z,0
2017-09-01T04:42:03.676Z,0
2017-09-01T04:42:44.256Z,0
2017-09-01T04:43:24.831Z,0
2017-09-01T04:44:05.413Z,0
2017-09-01T04:44:45.992Z,0
2017-09-01T04:45:26.567Z,0
2017-09-01T04:46:07.157Z,0
2017-09-01T04:46:47.728Z,5
2017-09-01T04:47:28.311Z,5
2017-09-01T04:48:08.882Z,5
2017-09-01T04:48:49.459Z,5
2017-09-01T04:49:30.045Z,5
2017-09-01T04:50:10.626Z,5
2017-09-01T04:50:51.208Z,5
2017-09-01T04:51:31.785Z,5
2017-09-01T04:52:12.374Z,5
2017-09-01T04:52:52.950Z,5
2017-09-01T04:53:33.573Z,5
2017-09-01T04:54:14.147Z,5
2017-09-01T04:54:54.734Z,5
2017-09-01T04:55:35.321Z,10
2017-09-01T04:56:15.901Z,10
2017-09-01T04:56:56.479Z,10
2017-09-01T04:57:37.059Z,10
2017-09-01T04:58:17.636Z,10
2017-09-01T04:58:58.216Z,10
2017-09-01T04:59:38.800Z,10
2017-09-01T05:00:19.392Z,10
2017-09-01T05:00:59.964Z,10
2017-09-01T05:01:40.551Z,10
2017-09-01T05:02:21.138Z,10
2017-09-01T05:03:01.712Z,10
2017-09-01T05:03:42.352Z,10
2017-09-01T05:04:22.932Z,10
2017-09-01T05:05:03.502Z,10
2017-09-01T05:05:44.091Z,10
2017-09-01T05:06:24.672Z,10
2017-09-01T05:07:05.253Z,10
2017-09-01T05:07:45.845Z,15
2017-09-01T05:08:26.417Z,15
2017-09-01T05:09:06.994Z,15
2017-09-01T05:09:47.577Z,15
2017-09-01T05:10:28.152Z,15
2017-09-01T05:11:08.739Z,15
2017-09-01T05:11:49.328Z,15
2017-09-01T05:12:29.899Z,15
2017-09-01T05:13:10.474Z,15
2017-09-01T05:13:51.051Z,15
2017-09-01T05:14:31.635Z,15
2017-09-01T05:15:12.223Z,15
2017-09-01T05:15:52.793Z,15
2017-09-01T05:16:33.364Z,15
2017-09-01T05:17:13.935Z,15
2017-09-01T05:17:54.519Z,15
2017-09-01T05:18:35.086Z,15
2017-09-01T05:19:15.679Z,15
2017-09-01T05:19:56.260Z,15
2017-09-01T05:20:36.847Z,15
2017-09-01T05:21:17.474Z,15
2017-09-01T05:21:57.996Z,15
2017-09-01T05:22:38.585Z,15
2017-09-01T05:23:19.160Z,15
2017-09-01T05:23:59.739Z,15
2017-09-01T05:24:40.317Z,15
2017-09-01T05:25:20.902Z,15
2017-09-01T05:26:01.476Z,20
2017-09-01T05:26:42.116Z,20
2017-09-01T05:27:22.700Z,20
2017-09-01T05:28:03.282Z,20
2017-09-01T05:28:43.862Z,20
2017-09-01T05:29:24.439Z,20
2017-09-01T05:30:05.024Z,20
2017-09-01T05:30:45.608Z,20
2017-09-01T05:31:40.788Z,20
2017-09-01T05:32:21.366Z,20
2017-09-01T05:33:01.952Z,20
2017-09-01T05:33:42.530Z,20
2017-09-01T05:34:23.102Z,20
2017-09-01T05:35:03.681Z,20
2017-09-01T05:37:36.900Z,25
2017-09-01T05:38:17.489Z,25
2017-09-01T05:38:58.069Z,25
2017-09-01T05:39:38.654Z,30
2017-09-01T05:40:19.252Z,30
2017-09-01T05:40:59.834Z,30
2017-09-01T05:41:40.412Z,30
2017-09-01T05:42:20.992Z,30
2017-09-01T05:43:01.566Z,35
2017-09-01T05:43:42.146Z,35
2017-09-01T05:44:23.696Z,35
2017-09-01T05:45:04.782Z,35
2017-09-01T05:45:46.219Z,35
2017-09-01T05:46:26.665Z,35
2017-09-01T05:47:07.233Z,35
2017-09-01T05:47:47.807Z,40
2017-09-01T05:48:28.364Z,40
2017-09-01T05:49:08.938Z,40
2017-09-01T05:49:49.527Z,40
2017-09-01T05:50:30.104Z,40
2017-09-01T05:51:11.292Z,35
2017-09-01T05:51:51.852Z,35
2017-09-01T05:52:32.440Z,35
2017-09-01T05:53:13.009Z,35
2017-09-01T05:53:53.588Z,40
2017-09-01T05:54:34.153Z,40
2017-09-01T05:55:14.723Z,40
2017-09-01T05:55:55.282Z,40
2017-09-01T05:56:35.860Z,40
2017-09-01T05:57:17.190Z,40
2017-09-01T05:57:57.783Z,40
2017-09-01T05:58:38.355Z,40
2017-09-01T05:59:18.926Z,40
2017-09-01T05:59:59.505Z,40
2017-09-01T06:00:40.093Z,45
2017-09-01T06:01:20.667Z,45
2017-09-01T06:02:01.254Z,45
2017-09-01T06:02:41.821Z,50
2017-09-01T06:03:22.401Z,55
2017-09-01T06:04:02.978Z,55
2017-09-01T06:04:43.556Z,60
2017-09-01T06:05:24.146Z,60
2017-09-01T06:06:04.728Z,65
2017-09-01T06:06:45.315Z,60
2017-09-01T06:07:25.897Z,60
2017-09-01T06:08:06.474Z,60
2017-09-01T06:08:47.048Z,60
2017-09-01T06:09:27.622Z,65
2017-09-01T06:10:08.213Z,65
2017-09-01T06:10:48.782Z,65
2017-09-01T06:11:29.365Z,65
2017-09-01T06:12:09.936Z,65
2017-09-01T06:12:50.522Z,65
2017-09-01T06:13:31.092Z,70
2017-09-01T06:14:11.663Z,70
2017-09-01T06:14:52.233Z,70
2017-09-01T06:15:32.825Z,75
2017-09-01T06:16:13.400Z,75
2017-09-01T06:16:53.983Z,75
2017-09-01T06:17:34.568Z,75
2017-09-01T06:18:15.153Z,75
2017-09-01T06:18:55.718Z,75
2017-09-01T06:19:36.301Z,80
2017-09-01T06:20:16.882Z,85
2017-09-01T06:20:57.456Z,85
2017-09-01T06:21:38.025Z,90
2017-09-01T06:22:18.606Z,90
2017-09-01T06:22:59.193Z,95
2017-09-01T06:23:39.761Z,95
2017-09-01T06:24:20.323Z,100
2017-09-01T06:25:00.897Z,100
2017-09-01T06:25:41.501Z,100
2017-09-01T06:26:22.089Z,100
2017-09-01T06:27:02.670Z,100
2017-09-01T06:27:59.083Z,100
2017-09-01T06:28:39.659Z,100
2017-09-01T06:29:20.232Z,100
2017-09-01T06:30:00.818Z,105
2017-09-01T06:30:41.387Z,105
2017-09-01T06:31:21.969Z,105
2017-09-01T06:32:02.552Z,110
2017-09-01T06:32:43.124Z,110
2017-09-01T06:33:23.706Z,110
2017-09-01T06:34:04.302Z,110
2017-09-01T06:34:44.857Z,110
2017-09-01T06:35:25.450Z,110
2017-09-01T06:36:06.023Z,110
2017-09-01T06:36:46.613Z,110
2017-09-01T06:37:27.201Z,110
2017-09-01T06:38:07.775Z,110
2017-09-01T06:38:48.348Z,110
2017-09-01T06:39:28.928Z,105
2017-09-01T06:40:09.513Z,105
2017-09-01T06:40:50.096Z,105
2017-09-01T06:41:30.678Z,105
2017-09-01T06:42:11.252Z,110
2017-09-01T06:42:51.832Z,110
2017-09-01T06:43:32.413Z,110
2017-09-01T06:44:12.982Z,110
2017-09-01T06:44:53.564Z,110
2017-09-01T06:45:34.134Z,110
2017-09-01T06:46:14.719Z,110
2017-09-01T06:46:55.300Z,110
2017-09-01T06:47:35.886Z,110
2017-09-01T06:48:16.468Z,105
2017-09-01T06:48:57.045Z,105
2017-09-01T06:49:37.625Z,105
2017-09-01T06:50:18.192Z,105
2017-09-01T06:50:58.786Z,105
2017-09-01T06:51:39.363Z,105
2017-09-01T06:52:19.941Z,105
2017-09-01T06:53:00.533Z,105
2017-09-01T06:53:41.099Z,105
2017-09-01T06:54:21.676Z,105
2017-09-01T06:55:02.262Z,105
2017-09-01T06:55:42.835Z,105
2017-09-01T06:56:23.411Z,105
2017-09-01T06:57:03.993Z,105
2017-09-01T06:57:44.574Z,105
2017-09-01T06:58:25.157Z,110
2017-09-01T06:59:05.720Z,115
2017-09-01T06:59:46.299Z,115
2017-09-01T07:00:26.865Z,120
2017-09-01T07:01:07.453Z,120
2017-09-01T07:01:48.027Z,120
2017-09-01T07:04:05.988Z,125
2017-09-01T07:06:18.776Z,125
2017-09-01T07:06:59.339Z,125
2017-09-01T07:07:39.927Z,125
2017-09-01T07:08:20.506Z,125
2017-09-01T07:09:01.082Z,125
2017-09-01T07:09:41.665Z,125
2017-09-01T07:10:22.248Z,125
2017-09-01T07:11:02.823Z,120
2017-09-01T07:11:43.396Z,115
2017-09-01T07:12:23.982Z,110
2017-09-01T07:13:04.558Z,110
2017-09-01T07:13:45.135Z,115
2017-09-01T07:14:25.714Z,120
2017-09-01T07:15:06.300Z,120
2017-09-01T07:15:46.879Z,120
2017-09-01T07:16:27.448Z,125
2017-09-01T07:17:08.038Z,125
2017-09-01T07:17:48.625Z,125
2017-09-01T07:18:29.205Z,125
2017-09-01T07:19:09.775Z,125
2017-09-01T07:19:50.350Z,125
2017-09-01T07:20:30.934Z,125
2017-09-01T07:21:11.510Z,125
2017-09-01T07:21:52.082Z,125
2017-09-01T07:22:32.660Z,125
2017-09-01T07:23:13.246Z,125
2017-09-01T07:23:53.824Z,125
2017-09-01T07:24:34.411Z,125
2017-09-01T07:25:14.988Z,125
2017-09-01T07:25:55.570Z,125
2017-09-01T07:26:36.147Z,125
2017-09-01T07:27:16.724Z,120
2017-09-01T07:27:57.329Z,120
2017-09-01T07:28:37.909Z,120
2017-09-01T07:29:18.490Z,120
2017-09-01T07:29:59.078Z,120
2017-09-01T07:30:39.661Z,120
2017-09-01T07:31:20.244Z,120
2017-09-01T07:32:00.823Z,120
2017-09-01T07:32:41.405Z,115
2017-09-01T07:33:21.989Z,115
2017-09-01T07:34:02.570Z,110
2017-09-01T07:34:43.152Z,110
2017-09-01T07:35:23.735Z,105
2017-09-01T07:36:04.316Z,105
2017-09-01T07:36:44.898Z,105
2017-09-01T07:37:25.481Z,105
2017-09-01T07:38:06.052Z,100
2017-09-01T07:38:46.633Z,100
2017-09-01T07:39:27.202Z,100
2017-09-01T07:40:07.792Z,100
2017-09-01T07:40:48.370Z,95
2017-09-01T07:41:28.947Z,95
2017-09-01T07:42:09.523Z,95
2017-09-01T07:42:50.103Z,95
2017-09-01T07:43:30.706Z,95
2017-09-01T07:44:11.278Z,90
2017-09-01T07:44:51.864Z,90
2017-09-01T07:45:32.453Z,90
2017-09-01T07:46:13.016Z,90
2017-09-01T07:46:53.595Z,90
2017-09-01T07:47:34.186Z,90
2017-09-01T07:48:14.769Z,90
2017-09-01T07:48:55.352Z,90
2017-09-01T07:49:35.932Z,85
2017-09-01T07:50:16.507Z,85
2017-09-01T07:50:57.098Z,85
2017-09-01T07:51:37.679Z,85
2017-09-01T07:52:18.279Z,85
2017-09-01T07:52:58.863Z,85
2017-09-01T07:53:39.450Z,85
2017-09-01T07:54:20.032Z,85
2017-09-01T07:55:00.599Z,85
2017-09-01T07:55:41.179Z,85
2017-09-01T07:56:21.746Z,85
2017-09-01T07:57:02.326Z,85
2017-09-01T07:57:42.908Z,90
2017-09-01T07:58:23.495Z,90
2017-09-01T07:59:04.079Z,95
2017-09-01T07:59:44.656Z,95
2017-09-01T08:00:25.229Z,95
2017-09-01T08:01:05.809Z,100
2017-09-01T08:01:46.390Z,100
2017-09-01T08:02:26.969Z,100
2017-09-01T08:03:07.575Z,100
2017-09-01T08:03:48.126Z,100
2017-09-01T08:04:28.706Z,95
2017-09-01T08:05:09.284Z,95
2017-09-01T08:05:49.866Z,90
2017-09-01T08:06:30.459Z,90
2017-09-01T08:07:11.043Z,90
2017-09-01T08:07:51.626Z,85
2017-09-01T08:08:32.207Z,85
2017-09-01T08:09:12.792Z,75
2017-09-01T08:09:53.376Z,65
2017-09-01T08:10:33.957Z,65
2017-09-01T08:11:14.540Z,60
2017-09-01T08:11:55.117Z,60
2017-09-01T08:12:35.693Z,55
2017-09-01T08:13:16.284Z,50
2017-09-01T08:13:56.857Z,50
2017-09-01T08:14:37.427Z,50
2017-09-01T08:15:18.008Z,50
2017-09-01T08:17:35.982Z,55
2017-09-01T08:18:16.569Z,55
2017-09-01T08:18:57.152Z,60
2017-09-01T08:19:37.734Z,60
2017-09-01T08:20:18.317Z,60
2017-09-01T08:20:58.919Z,60
2017-09-01T08:21:39.474Z,60
2017-09-01T08:22:20.071Z,60
2017-09-01T08:23:00.641Z,60
2017-09-01T08:23:41.227Z,65
2017-09-01T08:24:21.808Z,70
2017-09-01T08:25:02.391Z,70
2017-09-01T08:25:42.968Z,75
2017-09-01T08:26:23.546Z,75
2017-09-01T08:27:04.130Z,70
2017-09-01T08:27:44.711Z,70
2017-09-01T08:28:25.289Z,70
2017-09-01T08:29:05.863Z,70
2017-09-01T08:29:46.452Z,70
2017-09-01T08:30:27.022Z,70
2017-09-01T08:31:07.618Z,75
2017-09-01T08:31:48.192Z,75
2017-09-01T08:32:28.782Z,80
2017-09-01T08:33:09.364Z,85
2017-09-01T08:33:49.945Z,90
2017-09-01T08:34:30.540Z,95
2017-09-01T08:35:11.110Z,95
2017-09-01T08:35:51.695Z,100
2017-09-01T08:36:32.273Z,100
2017-09-01T08:37:12.853Z,100
2017-09-01T08:37:53.439Z,100
2017-09-01T08:38:34.024Z,100
2017-09-01T08:39:14.611Z,105
2017-09-01T08:39:55.201Z,105
2017-09-01T08:40:35.771Z,110
2017-09-01T08:41:16.343Z,110
2017-09-01T08:41:56.929Z,110
2017-09-01T08:42:37.501Z,110
2017-09-01T08:43:18.083Z,110
2017-09-01T08:44:05.664Z,110
2017-09-01T08:44:46.239Z,115
2017-09-01T08:45:26.820Z,120
2017-09-01T08:48:00.032Z,135
2017-09-01T08:48:40.612Z,140
2017-09-01T08:49:21.176Z,140
2017-09-01T08:50:01.756Z,145
2017-09-01T08:50:42.337Z,145
2017-09-01T08:51:22.926Z,150
2017-09-01T08:52:03.510Z,150
2017-09-01T08:52:44.080Z,150
2017-09-01T08:53:24.662Z,155
2017-09-01T08:54:05.237Z,155
2017-09-01T08:54:45.814Z,160
2017-09-01T08:55:26.381Z,160
2017-09-01T08:56:06.975Z,160
2017-09-01T08:56:47.555Z,165
2017-09-01T08:57:28.133Z,165
2017-09-01T08:58:08.718Z,170
2017-09-01T08:58:49.296Z,170
2017-09-01T08:59:29.877Z,175
2017-09-01T09:00:10.458Z,175
2017-09-01T09:00:51.034Z,180
2017-09-01T09:01:42.170Z,180
2017-09-01T09:02:22.756Z,180
2017-09-01T09:03:03.329Z,180
2017-09-01T09:03:43.909Z,180
2017-09-01T09:04:24.492Z,180
2017-09-01T09:05:05.075Z,175
2017-09-01T09:05:45.651Z,175
2017-09-01T09:06:26.218Z,175
2017-09-01T09:07:06.802Z,175
2017-09-01T09:07:47.380Z,180
2017-09-01T09:08:27.960Z,180
2017-09-01T09:09:08.537Z,180
2017-09-01T09:09:49.122Z,185
2017-09-01T09:10:29.702Z,185
2017-09-01T09:11:10.281Z,185
2017-09-01T09:11:50.863Z,185
2017-09-01T09:12:31.454Z,185
2017-09-01T09:13:12.036Z,185
2017-09-01T09:13:52.614Z,185
2017-09-01T09:14:33.197Z,185
2017-09-01T09:15:13.776Z,185
2017-09-01T09:15:54.377Z,185
2017-09-01T09:16:34.935Z,185
2017-09-01T09:17:15.526Z,185
2017-09-01T09:17:56.109Z,190
2017-09-01T09:18:36.686Z,190
2017-09-01T09:19:17.272Z,195
2017-09-01T09:19:57.845Z,200
2017-09-01T09:20:38.413Z,205
2017-09-01T09:21:18.991Z,210
2017-09-01T09:22:00.591Z,215
2017-09-01T09:22:41.168Z,220
2017-09-01T09:23:21.760Z,225
2017-09-01T09:24:02.368Z,230
2017-09-01T09:24:42.969Z,235
2017-09-01T09:25:23.551Z,235
2017-09-01T09:26:04.144Z,235
2017-09-01T09:26:44.724Z,240
2017-09-01T09:27:25.312Z,240
2017-09-01T09:28:05.898Z,240
2017-09-01T09:28:46.480Z,240
2017-09-01T09:29:27.063Z,240
2017-09-01T09:30:07.643Z,240
2017-09-01T09:30:48.237Z,235
2017-09-01T09:31:28.809Z,235
2017-09-01T09:32:09.398Z,230
2017-09-01T09:32:49.974Z,230
2017-09-01T09:33:30.561Z,230
2017-09-01T09:34:11.145Z,230
2017-09-01T09:34:51.721Z,230
2017-09-01T09:35:32.305Z,235
2017-09-01T09:36:12.892Z,235
2017-09-01T09:36:53.473Z,235
2017-09-01T09:37:34.055Z,235
2017-09-01T09:38:14.635Z,240
2017-09-01T09:38:55.222Z,240
2017-09-01T09:39:35.796Z,240
2017-09-01T09:40:16.385Z,240
2017-09-01T09:40:56.972Z,245
2017-09-01T09:41:37.545Z,245
2017-09-01T09:42:18.119Z,245
2017-09-01T09:42:58.702Z,245
2017-09-01T09:43:39.286Z,245
2017-09-01T09:44:19.867Z,245
2017-09-01T09:45:00.445Z,245
2017-09-01T09:45:41.035Z,250
2017-09-01T09:46:21.609Z,250
2017-09-01T09:47:02.197Z,255
2017-09-01T09:47:42.777Z,255
2017-09-01T09:48:23.351Z,265
2017-09-01T09:49:03.939Z,260
2017-09-01T09:49:44.515Z,265
2017-09-01T09:50:25.096Z,265
2017-09-01T09:51:05.675Z,265
2017-09-01T09:51:46.264Z,260
2017-09-01T09:52:26.852Z,265
2017-09-01T09:53:07.420Z,260
2017-09-01T09:53:47.998Z,260
2017-09-01T09:54:28.579Z,260
2017-09-01T09:55:09.160Z,255
2017-09-01T09:55:49.729Z,255
2017-09-01T09:56:30.323Z,250
2017-09-01T09:57:11.036Z,255